Time;durP1;ratioP1;P1;durP2;ratioP2;P2;SDS_P1;SDS_P2;PMS_P1;PMS_P2;Temp;Humidity;BMP_temperature;BMP_pressure;BME280_temperature;BME280_humidity;BME280_pressure;Samples;Min_cycle;Max_cycle;Signal;HPM_P1;HPM_P2
2022/03/06 00:03:47;;;;;;;;;;;2.90;65.00;;;;;;8407182;28;19924;-73
2022/03/06 00:07:49;;;;;;;;;;;2.90;64.90;;;;;;8400426;28;19939;-74
2022/03/06 00:11:51;;;;;;;;;;;2.90;65.20;;;;;;8397287;28;19929;-74
2022/03/06 00:15:53;;;;;;;;;;;2.80;64.90;;;;;;8401259;28;19928;-73
2022/03/06 00:19:54;;;;;;;;;;;2.70;65.10;;;;;;8381684;28;19947;-74
2022/03/06 00:23:56;;;;;;;;;;;2.70;65.10;;;;;;8399815;28;19925;-73
2022/03/06 00:27:58;;;;;;;;;;;2.70;65.00;;;;;;8407782;28;19968;-74
2022/03/06 00:31:59;;;;;;;;;;;2.60;65.20;;;;;;8408154;28;22230;-74
2022/03/06 00:36:01;;;;;;;;;;;2.50;65.10;;;;;;8399499;28;20337;-74
2022/03/06 00:40:03;;;;;;;;;;;2.50;65.40;;;;;;8404998;28;19973;-74
2022/03/06 00:44:05;;;;;;;;;;;2.40;65.00;;;;;;8404986;28;19932;-73
2022/03/06 00:48:07;;;;;;;;;;;2.40;65.20;;;;;;8407211;28;19932;-73
2022/03/06 00:52:09;;;;;;;;;;;2.30;65.50;;;;;;8405435;28;20368;-74
2022/03/06 00:56:10;;;;;;;;;;;2.30;65.50;;;;;;8404520;28;22029;-73
2022/03/06 01:00:12;;;;;;;;;;;2.20;65.20;;;;;;8405572;28;20324;-73
2022/03/06 01:04:14;;;;;;;;;;;2.20;65.00;;;;;;8403528;28;20407;-73
2022/03/06 01:08:16;;;;;;;;;;;2.10;65.40;;;;;;8403654;28;19939;-74
2022/03/06 01:12:18;;;;;;;;;;;2.10;64.80;;;;;;8414025;28;20368;-73
2022/03/06 01:16:19;;;;;;;;;;;2.00;64.80;;;;;;8408104;28;19931;-74
2022/03/06 01:20:23;;;;;;;;;;;2.00;65.00;;;;;;8394994;28;20384;-73
2022/03/06 01:24:25;;;;;;;;;;;1.90;64.80;;;;;;8390382;28;19924;-73
2022/03/06 01:28:26;;;;;;;;;;;1.90;64.70;;;;;;8410063;28;19932;-73
2022/03/06 01:32:28;;;;;;;;;;;1.90;65.00;;;;;;8408436;28;19924;-73
2022/03/06 01:36:30;;;;;;;;;;;1.80;64.70;;;;;;8405356;28;19940;-73
2022/03/06 01:40:32;;;;;;;;;;;1.70;65.10;;;;;;8382433;28;20436;-73
2022/03/06 01:44:34;;;;;;;;;;;1.70;65.20;;;;;;8403010;28;20264;-73
2022/03/06 01:48:35;;;;;;;;;;;1.60;64.80;;;;;;8391320;28;19932;-73
2022/03/06 01:52:37;;;;;;;;;;;1.60;65.00;;;;;;8388650;28;20424;-73
2022/03/06 01:56:40;;;;;;;;;;;1.60;65.40;;;;;;8411031;28;19928;-73
2022/03/06 02:00:44;;;;;;;;;;;1.60;65.50;;;;;;8407273;28;19931;-73
2022/03/06 02:04:46;;;;;;;;;;;1.60;65.20;;;;;;8413376;28;19924;-73
2022/03/06 02:08:48;;;;;;;;;;;1.50;65.20;;;;;;8417995;28;19928;-73
2022/03/06 02:12:50;;;;;;;;;;;1.50;65.40;;;;;;8405767;28;19974;-73
2022/03/06 02:16:51;;;;;;;;;;;1.50;65.40;;;;;;8403443;28;19932;-74
2022/03/06 02:20:53;;;;;;;;;;;1.50;65.30;;;;;;8408892;28;19936;-73
2022/03/06 02:24:55;;;;;;;;;;;1.40;65.60;;;;;;8411517;28;19947;-74
2022/03/06 02:28:56;;;;;;;;;;;1.40;65.40;;;;;;8392987;28;19924;-73
2022/03/06 02:32:59;;;;;;;;;;;1.40;65.60;;;;;;8392408;28;19928;-74
2022/03/06 02:37:01;;;;;;;;;;;1.40;65.70;;;;;;8397984;28;20398;-74
2022/03/06 02:41:02;;;;;;;;;;;1.40;65.60;;;;;;8402172;28;19928;-73
2022/03/06 02:45:05;;;;;;;;;;;1.40;65.80;;;;;;8399827;28;19929;-73
2022/03/06 02:49:09;;;;;;;;;;;1.40;65.30;;;;;;8404708;28;19924;-73
2022/03/06 02:53:10;;;;;;;;;;;1.30;65.40;;;;;;8398941;28;20295;-73
2022/03/06 02:57:12;;;;;;;;;;;1.30;65.40;;;;;;8396445;28;19931;-74
2022/03/06 03:01:14;;;;;;;;;;;1.30;65.20;;;;;;8384981;28;19939;-73
2022/03/06 03:05:16;;;;;;;;;;;1.30;64.60;;;;;;8391532;28;20353;-74
2022/03/06 03:09:21;;;;;;;;;;;1.30;64.70;;;;;;8398776;28;19929;-73
2022/03/06 03:13:23;;;;;;;;;;;1.20;64.90;;;;;;8382344;28;20348;-74
2022/03/06 03:17:25;;;;;;;;;;;1.20;65.00;;;;;;8390187;28;19925;-73
2022/03/06 03:21:26;;;;;;;;;;;1.20;65.30;;;;;;8399488;28;19929;-74
2022/03/06 03:25:28;;;;;;;;;;;1.10;65.20;;;;;;8383484;28;19924;-73
2022/03/06 03:29:29;;;;;;;;;;;1.10;65.20;;;;;;8411962;28;19925;-73
2022/03/06 03:33:31;;;;;;;;;;;1.10;65.10;;;;;;8394991;28;19939;-73
2022/03/06 03:37:33;;;;;;;;;;;1.10;64.80;;;;;;8398836;28;19924;-74
2022/03/06 03:41:35;;;;;;;;;;;1.10;65.20;;;;;;8405470;28;19935;-73
2022/03/06 03:45:37;;;;;;;;;;;1.00;65.00;;;;;;8398093;28;20689;-74
2022/03/06 03:49:39;;;;;;;;;;;1.00;65.40;;;;;;8400859;28;19929;-73
2022/03/06 03:53:40;;;;;;;;;;;1.00;64.90;;;;;;8385894;28;19924;-73
2022/03/06 03:57:42;;;;;;;;;;;1.00;64.80;;;;;;8397938;28;20387;-73
2022/03/06 04:01:44;;;;;;;;;;;0.90;64.80;;;;;;8413023;28;20139;-73
2022/03/06 04:05:45;;;;;;;;;;;0.90;64.80;;;;;;8402245;28;20026;-74
2022/03/06 04:09:47;;;;;;;;;;;0.90;64.70;;;;;;8415416;28;20031;-73
2022/03/06 04:13:48;;;;;;;;;;;0.90;64.70;;;;;;8377998;28;19928;-74
2022/03/06 04:17:50;;;;;;;;;;;0.80;64.90;;;;;;8409800;28;19924;-74
2022/03/06 04:21:52;;;;;;;;;;;0.80;65.20;;;;;;8376779;28;20407;-74
2022/03/06 04:25:54;;;;;;;;;;;0.80;65.00;;;;;;8402709;28;19936;-74
2022/03/06 04:29:55;;;;;;;;;;;0.80;65.00;;;;;;8410621;28;19970;-73
2022/03/06 04:33:57;;;;;;;;;;;0.70;65.20;;;;;;8401620;28;19983;-74
2022/03/06 04:37:58;;;;;;;;;;;0.70;65.00;;;;;;8398019;28;19925;-73
2022/03/06 04:42:00;;;;;;;;;;;0.60;64.90;;;;;;8389247;28;19924;-73
2022/03/06 04:46:02;;;;;;;;;;;0.60;64.70;;;;;;8406618;28;19925;-74
2022/03/06 04:50:04;;;;;;;;;;;0.60;65.40;;;;;;8386967;28;19928;-73
2022/03/06 04:54:07;;;;;;;;;;;0.50;65.30;;;;;;8386821;28;20376;-74
2022/03/06 04:58:09;;;;;;;;;;;0.50;65.80;;;;;;8379101;28;20277;-74
2022/03/06 05:02:10;;;;;;;;;;;0.50;65.70;;;;;;8402034;28;19924;-74
2022/03/06 05:06:12;;;;;;;;;;;0.50;65.70;;;;;;8401707;28;19936;-73
2022/03/06 05:10:14;;;;;;;;;;;0.50;66.10;;;;;;8411265;28;19924;-74
2022/03/06 05:14:16;;;;;;;;;;;0.50;66.20;;;;;;8409990;28;20134;-74
2022/03/06 05:18:17;;;;;;;;;;;0.40;65.50;;;;;;8406109;28;19931;-74
2022/03/06 05:22:19;;;;;;;;;;;0.40;65.60;;;;;;8407054;28;19932;-74
2022/03/06 05:26:21;;;;;;;;;;;0.30;65.70;;;;;;8402942;28;20396;-73
2022/03/06 05:30:22;;;;;;;;;;;0.30;65.90;;;;;;8410348;28;19924;-73
2022/03/06 05:34:24;;;;;;;;;;;0.30;66.20;;;;;;8394975;28;20289;-74
2022/03/06 05:38:26;;;;;;;;;;;0.30;66.60;;;;;;8404698;28;20371;-73
2022/03/06 05:42:27;;;;;;;;;;;0.20;66.20;;;;;;8382192;28;20275;-73
2022/03/06 05:46:29;;;;;;;;;;;0.20;66.60;;;;;;8386350;28;19935;-74
2022/03/06 05:50:31;;;;;;;;;;;0.20;66.40;;;;;;8404219;28;20024;-74
2022/03/06 05:54:32;;;;;;;;;;;0.20;66.60;;;;;;8402777;28;19932;-74
2022/03/06 05:58:34;;;;;;;;;;;0.10;66.60;;;;;;8405950;28;19924;-73
2022/03/06 06:02:36;;;;;;;;;;;0.10;67.30;;;;;;8401161;28;20387;-73
2022/03/06 06:06:38;;;;;;;;;;;0.10;67.80;;;;;;8388703;28;20322;-74
2022/03/06 06:10:39;;;;;;;;;;;0.10;70.00;;;;;;8378201;28;19924;-74
2022/03/06 06:14:41;;;;;;;;;;;0.00;68.80;;;;;;8391251;28;19951;-73
2022/03/06 06:18:43;;;;;;;;;;;0.10;69.70;;;;;;8388663;28;19975;-74
2022/03/06 06:22:44;;;;;;;;;;;0.00;69.10;;;;;;8380442;28;19947;-73
2022/03/06 06:26:47;;;;;;;;;;;0.00;69.70;;;;;;8381851;28;20303;-74
2022/03/06 06:30:49;;;;;;;;;;;0.00;70.00;;;;;;8399237;28;19924;-73
2022/03/06 06:34:50;;;;;;;;;;;0.00;70.00;;;;;;8403738;28;19931;-74
2022/03/06 06:38:52;;;;;;;;;;;0.00;69.80;;;;;;8382993;28;19924;-74
2022/03/06 06:42:54;;;;;;;;;;;0.00;69.80;;;;;;8409353;28;19924;-74
2022/03/06 06:46:56;;;;;;;;;;;0.00;70.00;;;;;;8406813;28;19933;-74
2022/03/06 06:50:58;;;;;;;;;;;0.10;70.90;;;;;;8413515;28;19947;-73
2022/03/06 06:54:59;;;;;;;;;;;0.10;71.50;;;;;;8415586;28;20300;-74
2022/03/06 06:59:01;;;;;;;;;;;0.20;71.70;;;;;;8387444;28;19928;-73
2022/03/06 07:03:03;;;;;;;;;;;0.20;72.30;;;;;;8408579;28;19935;-74
2022/03/06 07:07:04;;;;;;;;;;;0.40;72.00;;;;;;8419685;28;19931;-74
2022/03/06 07:11:06;;;;;;;;;;;0.50;72.20;;;;;;8393232;28;19924;-73
2022/03/06 07:15:08;;;;;;;;;;;0.50;72.50;;;;;;8408446;28;20458;-74
2022/03/06 07:19:10;;;;;;;;;;;0.70;73.10;;;;;;8407394;28;19925;-73
2022/03/06 07:23:11;;;;;;;;;;;0.80;73.50;;;;;;8411063;28;19928;-74
2022/03/06 07:27:13;;;;;;;;;;;0.90;73.80;;;;;;8389585;28;20256;-74
2022/03/06 07:31:15;;;;;;;;;;;1.00;74.70;;;;;;8409749;28;19925;-74
2022/03/06 07:35:17;;;;;;;;;;;1.10;74.70;;;;;;8409507;28;19925;-74
2022/03/06 07:39:19;;;;;;;;;;;1.20;75.10;;;;;;8397537;28;19935;-73
2022/03/06 07:43:20;;;;;;;;;;;1.30;75.40;;;;;;8408819;28;19928;-73
2022/03/06 07:47:22;;;;;;;;;;;1.40;75.30;;;;;;8387140;28;20255;-73
2022/03/06 07:51:24;;;;;;;;;;;1.60;76.70;;;;;;8400522;28;19932;-73
2022/03/06 07:55:25;;;;;;;;;;;1.70;76.70;;;;;;8400778;28;19932;-73
2022/03/06 07:59:28;;;;;;;;;;;1.80;76.40;;;;;;8382219;28;20020;-73
2022/03/06 08:03:30;;;;;;;;;;;2.00;76.60;;;;;;8389368;28;19927;-73
2022/03/06 08:07:32;;;;;;;;;;;2.10;77.30;;;;;;8414854;28;19928;-74
2022/03/06 08:11:33;;;;;;;;;;;2.20;78.00;;;;;;8408572;28;19933;-74
2022/03/06 08:15:36;;;;;;;;;;;2.30;78.20;;;;;;8404431;28;20000;-73
2022/03/06 08:19:37;;;;;;;;;;;2.50;78.50;;;;;;8385086;28;20372;-76
2022/03/06 08:23:39;;;;;;;;;;;2.60;79.50;;;;;;8409214;28;19932;-74
2022/03/06 08:27:41;;;;;;;;;;;2.80;79.80;;;;;;8410618;28;19924;-74
2022/03/06 08:31:42;;;;;;;;;;;2.90;80.00;;;;;;8406074;28;20318;-74
2022/03/06 08:35:44;;;;;;;;;;;3.00;80.70;;;;;;8410982;28;19924;-73
2022/03/06 08:39:50;;;;;;;;;;;3.10;81.10;;;;;;8398879;28;19925;-73
2022/03/06 08:43:51;;;;;;;;;;;3.20;80.70;;;;;;8408280;28;19924;-73
2022/03/06 08:47:53;;;;;;;;;;;3.40;81.00;;;;;;8402876;28;20315;-74
2022/03/06 08:51:55;;;;;;;;;;;3.60;81.10;;;;;;8410338;28;20395;-73
2022/03/06 08:55:57;;;;;;;;;;;3.80;81.00;;;;;;8387702;28;19962;-73
2022/03/06 08:59:58;;;;;;;;;;;4.00;81.60;;;;;;8404801;28;19931;-74
2022/03/06 09:04:00;;;;;;;;;;;4.10;80.70;;;;;;8404603;28;19924;-73
2022/03/06 09:08:01;;;;;;;;;;;4.30;81.00;;;;;;8407539;28;19939;-73
2022/03/06 09:12:04;;;;;;;;;;;4.40;81.10;;;;;;8409380;28;19924;-74
2022/03/06 09:16:05;;;;;;;;;;;4.50;81.30;;;;;;8406315;28;19924;-73
2022/03/06 09:20:08;;;;;;;;;;;4.70;81.50;;;;;;8382274;28;19928;-73
2022/03/06 09:24:10;;;;;;;;;;;4.80;81.80;;;;;;8389538;28;19932;-74
2022/03/06 09:28:12;;;;;;;;;;;4.90;81.10;;;;;;8388829;28;19939;-73
2022/03/06 09:32:14;;;;;;;;;;;5.10;81.50;;;;;;8407798;28;19967;-73
2022/03/06 09:36:16;;;;;;;;;;;5.30;81.10;;;;;;8394636;28;19940;-73
2022/03/06 09:40:18;;;;;;;;;;;5.50;81.30;;;;;;8416289;28;20299;-74
2022/03/06 09:44:22;;;;;;;;;;;5.60;81.70;;;;;;8402114;28;20303;-73
2022/03/06 09:48:24;;;;;;;;;;;5.70;81.30;;;;;;8389541;28;19924;-74
2022/03/06 09:52:26;;;;;;;;;;;5.80;81.30;;;;;;8401590;28;19931;-74
2022/03/06 09:56:27;;;;;;;;;;;6.00;81.50;;;;;;8408658;28;19924;-74
2022/03/06 10:00:29;;;;;;;;;;;6.40;82.20;;;;;;8411026;28;19930;-74
2022/03/06 10:04:32;;;;;;;;;;;6.80;83.20;;;;;;8415120;28;19977;-73
2022/03/06 10:08:34;;;;;;;;;;;7.30;85.30;;;;;;8412703;28;19931;-74
2022/03/06 10:12:43;;;;;;;;;;;7.70;88.50;;;;;;8391261;28;19934;-74
2022/03/06 10:17:04;;;;;;;;;;;8.10;91.00;;;;;;8390188;28;19924;-74
2022/03/06 10:21:09;;;;;;;;;;;8.50;92.10;;;;;;8415808;28;19963;-74
2022/03/06 10:25:16;;;;;;;;;;;8.90;93.20;;;;;;8418646;28;19931;-74
2022/03/06 10:29:24;;;;;;;;;;;9.10;93.30;;;;;;8404219;28;20380;-74
2022/03/06 10:33:26;;;;;;;;;;;9.20;92.90;;;;;;8390761;28;19931;-73
2022/03/06 10:37:30;;;;;;;;;;;9.30;92.20;;;;;;8412487;28;20307;-74
2022/03/06 10:41:33;;;;;;;;;;;9.70;93.30;;;;;;8417836;28;19924;-74
2022/03/06 10:45:34;;;;;;;;;;;10.20;94.90;;;;;;8414267;28;19924;-73
2022/03/06 10:49:36;;;;;;;;;;;10.60;95.10;;;;;;8402734;28;19963;-73
2022/03/06 10:53:38;;;;;;;;;;;10.80;95.20;;;;;;8411845;28;20398;-74
2022/03/06 10:57:40;;;;;;;;;;;11.20;96.60;;;;;;8417131;28;19928;-74
2022/03/06 11:01:42;;;;;;;;;;;11.60;98.00;;;;;;8410392;28;19931;-74
2022/03/06 11:05:45;;;;;;;;;;;12.00;99.20;;;;;;8407417;28;19924;-74
2022/03/06 11:09:46;;;;;;;;;;;12.40;98.90;;;;;;8404925;28;19999;-74
2022/03/06 11:13:48;;;;;;;;;;;12.60;98.40;;;;;;8421946;28;19924;-74
2022/03/06 11:17:50;;;;;;;;;;;12.70;98.30;;;;;;8416811;28;20338;-74
2022/03/06 11:21:57;;;;;;;;;;;13.00;98.40;;;;;;8395227;28;20363;-74
2022/03/06 11:26:02;;;;;;;;;;;13.20;97.90;;;;;;8414124;28;19966;-74
2022/03/06 11:30:18;;;;;;;;;;;13.30;97.20;;;;;;8400726;28;20387;-74
2022/03/06 11:34:27;;;;;;;;;;;13.50;96.90;;;;;;8412496;28;19924;-74
2022/03/06 11:38:39;;;;;;;;;;;13.80;97.40;;;;;;8411266;28;19925;-74
2022/03/06 11:42:54;;;;;;;;;;;14.20;97.00;;;;;;8413531;28;19931;-74
2022/03/06 11:46:56;;;;;;;;;;;14.60;96.80;;;;;;8413746;28;20039;-73
2022/03/06 11:51:22;;;;;;;;;;;14.80;96.50;;;;;;8378980;28;19924;-74
2022/03/06 11:55:31;;;;;;;;;;;15.00;95.00;;;;;;8409869;28;20301;-74
2022/03/06 11:59:34;;;;;;;;;;;14.70;92.80;;;;;;8404293;28;19986;-74
2022/03/06 12:03:46;;;;;;;;;;;14.60;92.10;;;;;;8412653;28;19932;-74
2022/03/06 12:07:48;;;;;;;;;;;14.80;92.30;;;;;;8409872;28;19968;-74
2022/03/06 12:11:51;;;;;;;;;;;14.30;88.80;;;;;;8410006;28;20343;-74
2022/03/06 12:16:07;;;;;;;;;;;14.40;89.40;;;;;;8387008;28;19935;-74
2022/03/06 12:20:13;;;;;;;;;;;15.00;90.00;;;;;;8395944;28;19935;-73
2022/03/06 12:24:27;;;;;;;;;;;15.20;90.30;;;;;;8415674;28;19932;-73
2022/03/06 12:28:36;;;;;;;;;;;15.10;86.90;;;;;;8409351;28;19935;-74
2022/03/06 12:32:39;;;;;;;;;;;15.00;84.50;;;;;;8407312;28;19948;-74
2022/03/06 12:36:40;;;;;;;;;;;15.50;87.10;;;;;;8410954;28;19928;-74
2022/03/06 12:40:42;;;;;;;;;;;16.10;87.40;;;;;;8420391;28;20398;-73
2022/03/06 12:44:46;;;;;;;;;;;16.40;86.30;;;;;;8409919;28;20305;-74
2022/03/06 12:48:48;;;;;;;;;;;16.20;81.50;;;;;;8411774;28;19928;-75
2022/03/06 12:52:54;;;;;;;;;;;15.80;76.90;;;;;;8394866;28;19924;-74
2022/03/06 12:56:57;;;;;;;;;;;15.60;78.10;;;;;;8417676;28;19924;-74
2022/03/06 13:01:05;;;;;;;;;;;16.00;81.70;;;;;;8416651;28;19973;-74
2022/03/06 13:05:07;;;;;;;;;;;16.10;80.90;;;;;;8408865;28;19961;-74
2022/03/06 13:09:18;;;;;;;;;;;15.70;78.10;;;;;;8420043;28;19935;-75
2022/03/06 13:13:19;;;;;;;;;;;15.20;72.70;;;;;;8416868;28;19932;-74
2022/03/06 13:17:21;;;;;;;;;;;14.50;67.20;;;;;;8397181;28;19924;-75
2022/03/06 13:21:24;;;;;;;;;;;13.80;64.40;;;;;;8423292;28;20173;-74
2022/03/06 13:25:26;;;;;;;;;;;13.30;62.10;;;;;;8422921;28;19924;-74
2022/03/06 13:29:28;;;;;;;;;;;13.00;61.10;;;;;;8409913;28;19928;-74
2022/03/06 13:33:30;;;;;;;;;;;12.80;59.80;;;;;;8401706;28;19924;-74
2022/03/06 13:37:32;;;;;;;;;;;12.60;59.00;;;;;;8413123;28;19932;-73
2022/03/06 13:41:34;;;;;;;;;;;12.50;58.70;;;;;;8419800;28;20458;-73
2022/03/06 13:45:36;;;;;;;;;;;12.50;58.00;;;;;;8410913;28;20012;-73
2022/03/06 13:49:39;;;;;;;;;;;12.40;57.80;;;;;;8405897;28;20154;-73
2022/03/06 13:53:54;;;;;;;;;;;12.30;57.40;;;;;;8401162;28;19940;-72
2022/03/06 13:58:07;;;;;;;;;;;12.20;56.90;;;;;;8392433;28;20287;-73
2022/03/06 14:02:09;;;;;;;;;;;12.00;57.10;;;;;;8408799;28;19931;-73
2022/03/06 14:06:12;;;;;;;;;;;11.80;56.60;;;;;;8409409;28;19932;-73
2022/03/06 14:10:14;;;;;;;;;;;11.80;56.30;;;;;;8411119;28;20330;-73
2022/03/06 14:14:16;;;;;;;;;;;11.60;55.40;;;;;;8384797;28;19925;-73
2022/03/06 14:18:30;;;;;;;;;;;11.70;55.30;;;;;;8389894;28;19924;-72
2022/03/06 14:22:31;;;;;;;;;;;11.70;55.10;;;;;;8420361;28;19935;-73
2022/03/06 14:26:37;;;;;;;;;;;11.70;55.00;;;;;;8414937;28;20232;-73
2022/03/06 14:30:39;;;;;;;;;;;11.60;55.00;;;;;;8398412;28;19924;-73
2022/03/06 14:34:40;;;;;;;;;;;11.80;56.00;;;;;;8402186;28;19964;-73
2022/03/06 14:38:42;;;;;;;;;;;12.80;57.50;;;;;;8408969;28;19931;-73
2022/03/06 14:42:44;;;;;;;;;;;13.90;61.10;;;;;;8365257;28;19931;-73
2022/03/06 14:46:53;;;;;;;;;;;15.10;65.30;;;;;;8364074;28;19966;-73
2022/03/06 14:50:55;;;;;;;;;;;16.40;67.20;;;;;;8379587;28;20420;-73
2022/03/06 14:54:56;;;;;;;;;;;17.30;69.00;;;;;;8369235;28;19925;-72
2022/03/06 14:58:59;;;;;;;;;;;18.00;69.20;;;;;;8377169;28;19944;-73
2022/03/06 15:03:01;;;;;;;;;;;18.00;67.50;;;;;;8390955;28;19925;-73
2022/03/06 15:07:03;;;;;;;;;;;17.90;66.40;;;;;;8377420;28;19924;-73
2022/03/06 15:11:05;;;;;;;;;;;18.00;64.20;;;;;;8365098;28;19925;-73
2022/03/06 15:15:07;;;;;;;;;;;18.10;63.50;;;;;;8365804;28;19925;-73
2022/03/06 15:19:09;;;;;;;;;;;18.40;63.00;;;;;;8383045;28;19939;-73
2022/03/06 15:23:10;;;;;;;;;;;18.30;62.60;;;;;;8366240;28;20431;-73
2022/03/06 15:27:12;;;;;;;;;;;18.20;60.70;;;;;;8384116;28;19928;-73
2022/03/06 15:31:16;;;;;;;;;;;17.80;59.30;;;;;;8377810;28;19932;-73
2022/03/06 15:35:18;;;;;;;;;;;17.20;55.90;;;;;;8379568;28;19925;-73
2022/03/06 15:39:19;;;;;;;;;;;16.40;55.20;;;;;;8382594;28;20263;-73
2022/03/06 15:43:21;;;;;;;;;;;16.20;55.90;;;;;;8407469;28;19943;-73
2022/03/06 15:47:23;;;;;;;;;;;16.00;54.60;;;;;;8397540;28;19943;-72
2022/03/06 15:51:24;;;;;;;;;;;15.90;54.80;;;;;;8409891;28;19951;-73
2022/03/06 15:55:26;;;;;;;;;;;15.70;54.50;;;;;;8415530;28;19928;-73
2022/03/06 15:59:28;;;;;;;;;;;15.50;55.00;;;;;;8393864;28;19928;-73
2022/03/06 16:03:29;;;;;;;;;;;15.70;54.90;;;;;;8415392;28;19933;-73
2022/03/06 16:07:31;;;;;;;;;;;15.90;53.80;;;;;;8416311;28;19982;-73
2022/03/06 16:11:33;;;;;;;;;;;15.60;53.30;;;;;;8413182;28;19932;-73
2022/03/06 16:15:34;;;;;;;;;;;15.10;52.40;;;;;;8393892;28;20347;-72
2022/03/06 16:19:37;;;;;;;;;;;14.40;51.80;;;;;;8405838;28;19929;-72
2022/03/06 16:23:42;;;;;;;;;;;14.00;51.60;;;;;;8411748;28;19924;-73
2022/03/06 16:27:44;;;;;;;;;;;13.80;51.60;;;;;;8413625;28;19932;-73
2022/03/06 16:31:46;;;;;;;;;;;13.70;51.70;;;;;;8410060;28;19932;-73
2022/03/06 16:35:49;;;;;;;;;;;13.70;51.40;;;;;;8387513;28;19931;-73
2022/03/06 16:39:53;;;;;;;;;;;13.10;50.60;;;;;;8405570;28;20372;-73
2022/03/06 16:43:55;;;;;;;;;;;12.50;50.50;;;;;;8411136;28;19924;-73
2022/03/06 16:47:56;;;;;;;;;;;11.90;50.80;;;;;;8414186;28;19928;-74
2022/03/06 16:51:58;;;;;;;;;;;11.40;50.50;;;;;;8397753;28;20384;-73
2022/03/06 16:56:00;;;;;;;;;;;11.30;51.00;;;;;;8393265;28;19939;-73
2022/03/06 17:00:07;;;;;;;;;;;11.20;51.20;;;;;;8394424;28;20287;-73
2022/03/06 17:04:09;;;;;;;;;;;10.90;51.10;;;;;;8370007;28;19936;-73
2022/03/06 17:08:11;;;;;;;;;;;10.70;51.20;;;;;;8370282;28;19929;-73
2022/03/06 17:12:13;;;;;;;;;;;10.30;51.40;;;;;;8389459;28;19935;-73
2022/03/06 17:16:14;;;;;;;;;;;9.90;52.40;;;;;;8398329;28;20287;-73
2022/03/06 17:20:16;;;;;;;;;;;9.60;52.60;;;;;;8395723;28;20398;-73
2022/03/06 17:24:18;;;;;;;;;;;9.40;52.60;;;;;;8389742;28;19929;-73
2022/03/06 17:28:20;;;;;;;;;;;9.20;52.70;;;;;;8368090;28;20372;-73
2022/03/06 17:32:23;;;;;;;;;;;9.10;52.90;;;;;;8392028;28;19943;-73
2022/03/06 17:36:24;;;;;;;;;;;8.90;53.10;;;;;;8375581;28;19969;-73
2022/03/06 17:40:26;;;;;;;;;;;8.80;53.30;;;;;;8397710;28;19949;-73
2022/03/06 17:44:30;;;;;;;;;;;8.60;53.50;;;;;;8393719;28;19924;-73
2022/03/06 17:48:32;;;;;;;;;;;8.50;53.50;;;;;;8388713;28;19971;-73
2022/03/06 17:52:34;;;;;;;;;;;8.30;53.90;;;;;;8383644;28;20283;-73
2022/03/06 17:56:36;;;;;;;;;;;8.10;54.60;;;;;;8388214;28;19932;-73
2022/03/06 18:00:38;;;;;;;;;;;8.00;54.70;;;;;;8391510;28;19932;-73
2022/03/06 18:04:39;;;;;;;;;;;7.90;54.70;;;;;;8386455;28;20380;-73
2022/03/06 18:08:43;;;;;;;;;;;7.70;55.30;;;;;;8367946;28;19952;-73
2022/03/06 18:12:45;;;;;;;;;;;7.60;55.70;;;;;;8370012;28;20688;-73
2022/03/06 18:16:46;;;;;;;;;;;7.50;55.20;;;;;;8380470;28;20647;-73
2022/03/06 18:20:48;;;;;;;;;;;7.50;55.20;;;;;;8382568;28;20346;-73
2022/03/06 18:24:50;;;;;;;;;;;7.50;55.40;;;;;;8382566;28;20288;-73
2022/03/06 18:28:52;;;;;;;;;;;7.40;55.50;;;;;;8382911;28;19928;-73
2022/03/06 18:32:56;;;;;;;;;;;7.50;55.40;;;;;;8395260;28;19928;-73
2022/03/06 18:36:57;;;;;;;;;;;7.50;55.40;;;;;;8387786;28;19924;-73
2022/03/06 18:41:00;;;;;;;;;;;7.50;55.50;;;;;;8391841;28;20095;-73
2022/03/06 18:45:01;;;;;;;;;;;7.40;55.50;;;;;;8368012;28;20775;-73
2022/03/06 18:49:03;;;;;;;;;;;7.30;55.70;;;;;;8367660;28;19936;-73
2022/03/06 18:53:05;;;;;;;;;;;7.30;55.90;;;;;;8370752;28;19975;-73
2022/03/06 18:57:07;;;;;;;;;;;7.20;56.00;;;;;;8382500;28;19932;-73
2022/03/06 19:01:08;;;;;;;;;;;7.20;55.90;;;;;;8368743;28;20015;-72
2022/03/06 19:05:11;;;;;;;;;;;7.20;55.70;;;;;;8368036;28;20007;-73
2022/03/06 19:09:16;;;;;;;;;;;7.00;55.50;;;;;;8386250;28;19980;-74
2022/03/06 19:13:20;;;;;;;;;;;7.00;55.40;;;;;;8386060;28;20034;-73
2022/03/06 19:17:22;;;;;;;;;;;6.90;55.70;;;;;;8366344;28;19925;-73
2022/03/06 19:21:23;;;;;;;;;;;6.80;55.80;;;;;;8385208;28;20319;-74
2022/03/06 19:25:26;;;;;;;;;;;6.80;55.90;;;;;;8385634;28;19933;-73
2022/03/06 19:29:27;;;;;;;;;;;6.80;55.80;;;;;;8384858;28;19989;-74
2022/03/06 19:33:30;;;;;;;;;;;6.80;55.90;;;;;;8385417;28;19936;-72
2022/03/06 19:37:31;;;;;;;;;;;6.80;56.00;;;;;;8385513;28;20057;-73
2022/03/06 19:41:33;;;;;;;;;;;6.70;55.80;;;;;;8385859;28;19982;-73
2022/03/06 19:45:35;;;;;;;;;;;6.70;55.80;;;;;;8385885;28;20462;-73
2022/03/06 19:49:36;;;;;;;;;;;6.60;55.70;;;;;;8386108;28;20479;-73
2022/03/06 19:53:41;;;;;;;;;;;6.50;55.60;;;;;;8384330;28;20402;-73
2022/03/06 19:57:43;;;;;;;;;;;6.50;55.50;;;;;;8383058;28;19986;-73
2022/03/06 20:01:46;;;;;;;;;;;6.40;55.50;;;;;;8386015;28;19925;-73
2022/03/06 20:05:48;;;;;;;;;;;6.30;55.80;;;;;;8380369;28;20333;-73
2022/03/06 20:09:51;;;;;;;;;;;6.20;55.90;;;;;;8385721;28;19925;-73
2022/03/06 20:13:53;;;;;;;;;;;6.10;55.90;;;;;;8365722;28;19936;-73
2022/03/06 20:17:55;;;;;;;;;;;6.00;56.00;;;;;;8382442;28;19932;-73
2022/03/06 20:21:58;;;;;;;;;;;5.90;56.10;;;;;;8382333;28;19994;-73
2022/03/06 20:26:00;;;;;;;;;;;5.70;56.20;;;;;;8381993;28;19925;-73
2022/03/06 20:30:06;;;;;;;;;;;5.60;56.60;;;;;;8382576;28;19932;-73
2022/03/06 20:34:07;;;;;;;;;;;5.40;56.70;;;;;;8384550;28;19929;-73
2022/03/06 20:38:09;;;;;;;;;;;5.30;56.80;;;;;;8381444;28;19932;-73
2022/03/06 20:42:11;;;;;;;;;;;5.20;56.90;;;;;;8373923;28;20351;-73
2022/03/06 20:46:13;;;;;;;;;;;5.00;57.10;;;;;;8393263;28;19928;-73
2022/03/06 20:50:18;;;;;;;;;;;4.90;57.40;;;;;;8393697;28;20241;-73
2022/03/06 20:54:20;;;;;;;;;;;4.70;57.50;;;;;;8397109;28;20312;-73
2022/03/06 20:58:22;;;;;;;;;;;4.60;57.50;;;;;;8373420;28;19939;-73
2022/03/06 21:02:24;;;;;;;;;;;4.50;57.80;;;;;;8396208;28;19956;-73
2022/03/06 21:06:26;;;;;;;;;;;4.40;58.00;;;;;;8391635;28;19970;-73
2022/03/06 21:10:27;;;;;;;;;;;4.20;58.00;;;;;;8391923;28;19939;-73
2022/03/06 21:14:29;;;;;;;;;;;4.10;58.00;;;;;;8388090;28;19963;-73
2022/03/06 21:18:32;;;;;;;;;;;4.00;58.20;;;;;;8369270;28;19939;-73
2022/03/06 21:22:34;;;;;;;;;;;4.00;58.20;;;;;;8371097;28;19940;-73
2022/03/06 21:26:37;;;;;;;;;;;3.90;58.20;;;;;;8386466;28;19936;-73
2022/03/06 21:30:39;;;;;;;;;;;3.80;58.10;;;;;;8390550;28;19928;-73
2022/03/06 21:34:40;;;;;;;;;;;3.80;58.30;;;;;;8385291;28;19929;-73
2022/03/06 21:38:42;;;;;;;;;;;3.70;58.20;;;;;;8371985;28;20423;-73
2022/03/06 21:42:45;;;;;;;;;;;3.70;58.30;;;;;;8391352;28;19954;-73
2022/03/06 21:46:47;;;;;;;;;;;3.60;58.50;;;;;;8393810;28;20411;-73
2022/03/06 21:50:49;;;;;;;;;;;3.50;58.50;;;;;;8389904;28;20308;-73
2022/03/06 21:54:53;;;;;;;;;;;3.40;58.70;;;;;;8393047;28;19930;-73
2022/03/06 21:58:55;;;;;;;;;;;3.30;58.70;;;;;;8375027;28;20030;-72
2022/03/06 22:02:57;;;;;;;;;;;3.20;58.80;;;;;;8371904;28;19928;-73
2022/03/06 22:06:58;;;;;;;;;;;3.00;58.80;;;;;;8403167;28;19947;-73
2022/03/06 22:11:00;;;;;;;;;;;2.90;58.90;;;;;;8383244;28;19947;-73
2022/03/06 22:15:02;;;;;;;;;;;2.80;59.00;;;;;;8387669;28;19924;-73
2022/03/06 22:19:04;;;;;;;;;;;2.70;59.10;;;;;;8383601;28;20439;-73
2022/03/06 22:23:06;;;;;;;;;;;2.70;59.20;;;;;;8408718;28;20330;-73
2022/03/06 22:27:09;;;;;;;;;;;2.50;59.30;;;;;;8400185;28;20405;-74
2022/03/06 22:31:15;;;;;;;;;;;2.40;59.50;;;;;;8403143;28;19924;-73
2022/03/06 22:35:17;;;;;;;;;;;2.40;59.70;;;;;;8403788;28;19969;-73
2022/03/06 22:39:19;;;;;;;;;;;2.40;59.50;;;;;;8407025;28;20367;-73
2022/03/06 22:43:21;;;;;;;;;;;2.30;59.50;;;;;;8411273;28;19924;-73
2022/03/06 22:47:22;;;;;;;;;;;2.20;59.50;;;;;;8408524;28;20387;-73
2022/03/06 22:51:24;;;;;;;;;;;2.20;59.60;;;;;;8401223;28;19933;-73
2022/03/06 22:55:25;;;;;;;;;;;2.10;59.70;;;;;;8412962;28;20332;-73
2022/03/06 22:59:27;;;;;;;;;;;2.10;59.90;;;;;;8389688;28;19951;-73
2022/03/06 23:03:29;;;;;;;;;;;2.10;59.90;;;;;;8401794;28;20400;-73
2022/03/06 23:07:30;;;;;;;;;;;2.00;59.90;;;;;;8385524;28;19931;-73
2022/03/06 23:11:32;;;;;;;;;;;2.00;60.10;;;;;;8411084;28;19925;-73
2022/03/06 23:15:34;;;;;;;;;;;1.90;60.30;;;;;;8418152;28;19928;-73
2022/03/06 23:19:36;;;;;;;;;;;1.90;60.40;;;;;;8396811;28;19932;-73
2022/03/06 23:23:38;;;;;;;;;;;1.90;60.60;;;;;;8399631;28;19928;-73
2022/03/06 23:27:40;;;;;;;;;;;2.00;60.80;;;;;;8416988;28;19974;-73
2022/03/06 23:31:42;;;;;;;;;;;2.00;60.90;;;;;;8399310;28;19924;-73
2022/03/06 23:35:43;;;;;;;;;;;2.00;61.10;;;;;;8413592;28;20379;-73
2022/03/06 23:39:45;;;;;;;;;;;2.00;61.00;;;;;;8410658;28;19924;-73
2022/03/06 23:43:47;;;;;;;;;;;2.00;61.20;;;;;;8388774;28;20337;-73
2022/03/06 23:47:48;;;;;;;;;;;2.00;61.20;;;;;;8399446;28;19924;-73